createdAt,value
2022-10-03T00:01:18.908Z,7.16
2022-10-03T00:02:40.256Z,7.20
2022-10-03T00:05:56.854Z,7.33
2022-10-03T00:07:02.642Z,7.21
2022-10-03T00:08:20.770Z,7.10
2022-10-03T00:09:26.444Z,7.02
2022-10-03T00:10:41.571Z,6.96
2022-10-03T00:12:10.280Z,7.04
2022-10-03T00:13:22.024Z,6.91
2022-10-03T00:14:33.842Z,6.95
2022-10-03T00:15:56.605Z,7.04
2022-10-03T00:17:11.796Z,7.04
2022-10-03T00:18:26.986Z,7.00
2022-10-03T00:20:06.791Z,7.01
2022-10-03T00:21:24.399Z,7.01
2022-10-03T00:24:11.306Z,6.95
2022-10-03T00:25:39.780Z,6.82
2022-10-03T00:26:54.865Z,6.94
2022-10-03T00:28:16.236Z,6.93
2022-10-03T00:29:51.423Z,7.02
2022-10-03T00:32:35.958Z,7.10
2022-10-03T00:33:41.901Z,6.93
2022-10-03T00:34:50.454Z,6.93
2022-10-03T00:36:16.045Z,6.87
2022-10-03T00:37:24.815Z,6.97
2022-10-03T00:38:30.518Z,6.93
2022-10-03T00:40:00.125Z,7.03
2022-10-03T00:41:26.698Z,6.97
2022-10-03T00:43:00.131Z,7.02
2022-10-03T00:44:18.142Z,7.08
2022-10-03T00:45:36.163Z,6.97
2022-10-03T00:46:54.077Z,7.05
2022-10-03T00:48:19.896Z,7.02
2022-10-03T00:50:01.688Z,7.06
2022-10-03T00:51:19.497Z,7.06
2022-10-03T00:52:57.259Z,7.03
2022-10-03T00:54:21.395Z,6.98
2022-10-03T00:55:30.199Z,7.05
2022-10-03T00:57:41.628Z,7.17
2022-10-03T00:59:15.156Z,7.05
2022-10-03T01:00:29.429Z,7.02
2022-10-03T01:01:35.318Z,7.04
2022-10-03T01:02:52.793Z,7.13
2022-10-03T01:04:04.585Z,7.17
2022-10-03T01:05:40.524Z,7.21
2022-10-03T01:06:49.054Z,6.99
2022-10-03T01:08:23.362Z,7.07
2022-10-03T01:09:47.323Z,7.02
2022-10-03T01:10:59.343Z,6.99
2022-10-03T01:12:20.133Z,7.09
2022-10-03T01:14:54.400Z,7.28
2022-10-03T01:16:02.885Z,7.07
2022-10-03T01:17:37.445Z,7.17
2022-10-03T01:18:49.286Z,7.09
2022-10-03T01:20:19.203Z,7.08
2022-10-03T01:21:25.161Z,6.97
2022-10-03T01:22:58.128Z,7.08
2022-10-03T01:24:26.475Z,7.12
2022-10-03T01:25:51.956Z,7.13
2022-10-03T01:27:09.870Z,7.18
2022-10-03T01:28:18.481Z,7.13
2022-10-03T01:29:24.306Z,7.25
2022-10-03T01:30:30.336Z,7.19
2022-10-03T01:32:03.469Z,7.28
2022-10-03T01:33:15.343Z,7.20
2022-10-03T01:34:21.158Z,7.25
2022-10-03T01:35:45.125Z,7.27
2022-10-03T01:38:31.138Z,7.34
2022-10-03T01:39:52.018Z,7.27
2022-10-03T01:41:18.104Z,7.27
2022-10-03T01:42:39.114Z,7.24
2022-10-03T01:43:53.975Z,7.27
2022-10-03T01:45:08.857Z,7.15
2022-10-03T01:46:36.028Z,7.09
2022-10-03T01:47:50.799Z,7.04
2022-10-03T01:49:17.152Z,7.00
2022-10-03T01:50:31.834Z,6.94
2022-10-03T01:52:03.150Z,7.09
2022-10-03T01:53:30.219Z,7.18
2022-10-03T01:54:47.912Z,7.08
2022-10-03T01:56:12.200Z,7.08
2022-10-03T01:59:07.431Z,7.22
2022-10-03T02:00:19.090Z,7.09
2022-10-03T02:01:22.919Z,7.06
2022-10-03T02:02:31.682Z,7.09
2022-10-03T02:03:51.930Z,6.94
2022-10-03T02:05:18.043Z,6.99
2022-10-03T02:06:36.054Z,7.07
2022-10-03T02:07:41.846Z,7.18
2022-10-03T02:08:53.394Z,7.04
2022-10-03T02:10:13.793Z,7.05
2022-10-03T02:11:31.360Z,7.02
2022-10-03T02:12:43.103Z,7.03
2022-10-03T02:13:51.844Z,6.99
2022-10-03T02:15:14.422Z,7.01
2022-10-03T02:16:46.191Z,6.98
2022-10-03T02:17:54.772Z,6.90
2022-10-03T02:19:06.598Z,7.05
2022-10-03T02:20:12.547Z,6.96
2022-10-03T02:21:18.534Z,7.05
2022-10-03T02:22:39.639Z,7.03
2022-10-03T02:23:44.705Z,6.89
2022-10-03T02:24:56.240Z,6.94
2022-10-03T02:26:00.058Z,7.06
2022-10-03T02:27:38.187Z,7.03
2022-10-03T02:28:58.682Z,7.02
2022-10-03T02:30:21.659Z,6.98
2022-10-03T02:31:47.361Z,7.06
2022-10-03T02:33:04.949Z,6.99
2022-10-03T02:34:16.915Z,7.07
2022-10-03T02:35:42.662Z,7.06
2022-10-03T02:37:05.607Z,7.10
2022-10-03T02:38:28.190Z,7.03
2022-10-03T02:39:49.279Z,7.07
2022-10-03T02:41:20.573Z,7.10
2022-10-03T02:42:32.273Z,7.03
2022-10-03T02:43:38.055Z,6.95
2022-10-03T02:45:09.064Z,6.98
2022-10-03T02:46:38.131Z,7.11
2022-10-03T02:48:08.432Z,7.15
2022-10-03T02:49:24.314Z,7.07
2022-10-03T02:50:56.436Z,7.07
2022-10-03T02:52:14.420Z,7.06
2022-10-03T02:53:39.968Z,7.13
2022-10-03T02:55:19.780Z,7.16
2022-10-03T02:56:45.577Z,7.13
2022-10-03T02:58:14.511Z,7.09
2022-10-03T02:59:36.689Z,7.09
2022-10-03T03:00:48.936Z,6.98
2022-10-03T03:02:11.927Z,6.99
2022-10-03T03:03:20.451Z,7.05
2022-10-03T03:04:44.338Z,7.11
2022-10-03T03:05:59.116Z,7.18
2022-10-03T03:07:34.909Z,7.17
2022-10-03T03:08:46.419Z,7.16
2022-10-03T03:10:08.503Z,7.07
2022-10-03T03:11:31.566Z,7.11
2022-10-03T03:12:49.528Z,6.96
2022-10-03T03:14:15.305Z,7.06
2022-10-03T03:15:53.328Z,6.97
2022-10-03T03:18:31.479Z,7.15
2022-10-03T03:19:42.987Z,6.97
2022-10-03T03:20:55.873Z,7.06
2022-10-03T03:22:07.551Z,7.12
2022-10-03T03:23:34.309Z,6.96
2022-10-03T03:24:42.731Z,6.97
2022-10-03T03:26:03.602Z,7.08
2022-10-03T03:27:24.117Z,7.11
2022-10-03T03:28:44.794Z,7.16
2022-10-03T03:29:50.642Z,7.10
2022-10-03T03:31:17.996Z,7.18
2022-10-03T03:32:26.589Z,6.98
2022-10-03T03:33:48.522Z,7.11
2022-10-03T03:35:03.540Z,7.13
2022-10-03T03:36:09.313Z,6.99
2022-10-03T03:37:15.036Z,7.07
2022-10-03T03:38:53.040Z,7.05
2022-10-03T03:40:20.320Z,6.98
2022-10-03T03:43:12.549Z,7.11
2022-10-03T03:44:38.210Z,7.01
2022-10-03T03:46:00.806Z,7.00
2022-10-03T03:47:29.719Z,7.08
2022-10-03T03:48:52.146Z,6.98
2022-10-03T03:50:31.911Z,6.95
2022-10-03T03:51:57.580Z,7.08
2022-10-03T03:53:20.334Z,7.11
2022-10-03T03:54:41.527Z,7.05
2022-10-03T03:56:11.669Z,6.96
2022-10-03T03:57:40.484Z,7.08
2022-10-03T03:58:55.339Z,7.05
2022-10-03T04:00:16.297Z,6.96
2022-10-03T04:01:42.524Z,6.91
2022-10-03T04:03:00.584Z,7.03
2022-10-03T04:04:17.952Z,6.99
2022-10-03T04:05:40.587Z,7.01
2022-10-03T04:07:03.279Z,6.98
2022-10-03T04:08:17.765Z,6.96
2022-10-03T04:09:40.332Z,7.08
2022-10-03T04:10:54.910Z,7.03
2022-10-03T04:12:06.319Z,6.92
2022-10-03T04:13:29.072Z,6.85
2022-10-03T04:14:53.233Z,6.97
2022-10-03T04:16:05.247Z,6.98
2022-10-03T04:17:13.956Z,6.93
2022-10-03T04:18:25.337Z,6.85
2022-10-03T04:19:33.855Z,6.84
2022-10-03T04:21:00.700Z,6.92
2022-10-03T04:22:06.853Z,7.04
2022-10-03T04:23:24.406Z,7.02
2022-10-03T04:24:44.993Z,6.92
2022-10-03T04:26:02.284Z,6.84
2022-10-03T04:27:23.401Z,7.02
2022-10-03T04:29:03.161Z,6.82
2022-10-03T04:30:18.155Z,6.96
2022-10-03T04:31:40.660Z,6.86
2022-10-03T04:33:05.223Z,6.81
2022-10-03T04:34:25.997Z,6.74
2022-10-03T04:35:47.067Z,6.77
2022-10-03T04:37:18.619Z,6.86
2022-10-03T04:38:39.664Z,6.93
2022-10-03T04:41:02.470Z,6.89
2022-10-03T04:42:14.229Z,6.84
2022-10-03T04:43:50.746Z,6.81
2022-10-03T04:45:13.296Z,6.86
2022-10-03T04:46:34.178Z,6.81
2022-10-03T04:47:57.950Z,6.79
2022-10-03T04:49:12.544Z,6.75
2022-10-03T04:50:36.857Z,6.79
2022-10-03T04:51:55.826Z,6.70
2022-10-03T04:53:16.804Z,6.85
2022-10-03T04:54:34.399Z,6.83
2022-10-03T04:55:42.828Z,6.80
2022-10-03T04:56:57.579Z,6.70
2022-10-03T04:58:18.626Z,6.78
2022-10-03T04:59:27.621Z,6.81
2022-10-03T05:00:49.997Z,6.89
2022-10-03T05:02:01.736Z,6.98
2022-10-03T05:03:22.630Z,6.80
2022-10-03T05:04:34.363Z,6.90
2022-10-03T05:05:43.130Z,6.96
2022-10-03T05:06:49.073Z,6.87
2022-10-03T05:08:03.787Z,6.93
2022-10-03T05:09:18.781Z,6.87
2022-10-03T05:10:46.125Z,6.91
2022-10-03T05:11:57.996Z,6.82
2022-10-03T05:13:03.714Z,6.84
2022-10-03T05:14:12.406Z,6.90
2022-10-03T05:15:30.024Z,6.87
2022-10-03T05:16:38.773Z,6.86
2022-10-03T05:18:05.334Z,6.85
2022-10-03T05:19:26.359Z,6.85
2022-10-03T05:20:47.447Z,6.66
2022-10-03T05:21:58.979Z,6.85
2022-10-03T05:23:20.192Z,6.90
2022-10-03T05:24:38.265Z,6.86
2022-10-03T05:26:02.743Z,6.98
2022-10-03T05:27:09.862Z,6.96
2022-10-03T05:28:18.635Z,6.97
2022-10-03T05:29:33.586Z,6.97
2022-10-03T05:30:48.511Z,6.96
2022-10-03T05:33:08.739Z,7.17
2022-10-03T05:34:29.536Z,7.06
2022-10-03T05:35:47.657Z,7.03
2022-10-03T05:37:13.222Z,7.09
2022-10-03T05:38:25.013Z,7.12
2022-10-03T05:40:01.265Z,7.08
2022-10-03T05:41:09.658Z,7.13
2022-10-03T05:42:38.493Z,7.00
2022-10-03T05:44:05.711Z,6.91
2022-10-03T05:45:26.607Z,7.08
2022-10-03T05:46:32.435Z,7.01
2022-10-03T05:47:53.537Z,6.91
2022-10-03T05:49:11.270Z,7.05
2022-10-03T05:50:23.645Z,7.12
2022-10-03T05:51:45.778Z,7.11
2022-10-03T05:54:11.355Z,7.18
2022-10-03T05:55:38.537Z,6.92
2022-10-03T05:57:03.777Z,6.93
2022-10-03T05:58:29.344Z,6.95
2022-10-03T05:59:46.620Z,6.98
2022-10-03T06:01:11.008Z,6.94
2022-10-03T06:02:36.564Z,7.04
2022-10-03T06:04:11.485Z,7.09
2022-10-03T06:05:17.434Z,7.04
2022-10-03T06:06:25.929Z,7.02
2022-10-03T06:07:48.546Z,7.03
2022-10-03T06:09:11.377Z,7.09
2022-10-03T06:10:23.165Z,7.07
2022-10-03T06:11:54.907Z,7.18
2022-10-03T06:13:12.998Z,7.20
2022-10-03T06:14:37.011Z,7.29
2022-10-03T06:16:00.741Z,7.30
2022-10-03T06:17:23.513Z,7.31
2022-10-03T06:18:58.475Z,7.32
2022-10-03T06:20:24.336Z,7.30
2022-10-03T06:21:53.137Z,7.39
2022-10-03T06:23:31.385Z,7.26
2022-10-03T06:25:00.808Z,7.39
2022-10-03T06:26:40.557Z,7.27
2022-10-03T06:28:12.410Z,7.29
2022-10-03T06:29:25.099Z,7.28
2022-10-03T06:30:43.090Z,7.40
2022-10-03T06:32:04.201Z,7.43
2022-10-03T06:33:33.101Z,7.46
2022-10-03T06:34:38.837Z,7.45
2022-10-03T06:36:06.052Z,7.50
2022-10-03T06:37:41.057Z,7.55
2022-10-03T06:39:03.769Z,7.43
2022-10-03T06:40:21.582Z,7.51
2022-10-03T06:41:52.426Z,7.50
2022-10-03T06:43:00.895Z,7.52
2022-10-03T06:44:12.734Z,7.52
2022-10-03T06:45:48.848Z,7.61
2022-10-03T06:47:26.828Z,7.65
2022-10-03T06:48:52.643Z,7.69
2022-10-03T06:50:13.742Z,7.68
2022-10-03T06:51:44.665Z,7.61
2022-10-03T06:53:02.958Z,7.63
2022-10-03T06:54:17.257Z,7.72
2022-10-03T06:55:42.656Z,7.68
2022-10-03T06:58:44.355Z,7.79
2022-10-03T07:01:15.884Z,7.81
2022-10-03T07:02:33.926Z,7.75
2022-10-03T07:05:30.789Z,7.91
2022-10-03T07:06:39.527Z,7.81
2022-10-03T07:07:54.240Z,7.75
2022-10-03T07:09:16.814Z,7.79
2022-10-03T07:10:45.314Z,7.65
2022-10-03T07:12:14.992Z,7.70
2022-10-03T07:13:40.679Z,7.76
2022-10-03T07:15:03.265Z,7.75
2022-10-03T07:16:26.925Z,7.79
2022-10-03T07:17:28.893Z,7.65
2022-10-03T07:19:08.252Z,7.76
2022-10-03T07:20:36.960Z,7.75
2022-10-03T07:21:52.261Z,7.81
2022-10-03T07:23:28.061Z,7.70
2022-10-03T07:24:50.735Z,7.75
2022-10-03T07:26:08.743Z,7.77
2022-10-03T07:27:20.508Z,7.79
2022-10-03T07:28:47.523Z,7.82
2022-10-03T07:30:21.595Z,7.77
2022-10-03T07:31:56.373Z,7.83
2022-10-03T07:33:23.444Z,7.89
2022-10-03T07:34:46.257Z,7.91
2022-10-03T07:36:08.704Z,7.98
2022-10-03T07:37:26.764Z,7.98
2022-10-03T07:38:50.705Z,7.88
2022-10-03T07:40:11.910Z,7.95
2022-10-03T07:41:17.838Z,7.94
2022-10-03T07:42:23.619Z,8.02
2022-10-03T07:43:32.516Z,7.87
2022-10-03T07:45:05.058Z,8.06
2022-10-03T07:46:32.595Z,7.99
2022-10-03T07:47:56.325Z,8.10
2022-10-03T07:49:37.363Z,8.07
2022-10-03T07:51:04.348Z,8.05
2022-10-03T07:52:10.144Z,8.00
2022-10-03T07:53:38.638Z,7.99
2022-10-03T07:54:55.987Z,8.03
2022-10-03T07:56:09.653Z,8.07
2022-10-03T07:57:15.225Z,8.14
2022-10-03T07:58:29.898Z,8.19
2022-10-03T08:00:00.129Z,8.22
2022-10-03T08:01:25.620Z,8.33
2022-10-03T08:02:48.368Z,8.36
2022-10-03T08:04:00.251Z,8.24
2022-10-03T08:05:25.435Z,8.46
2022-10-03T08:06:46.428Z,8.41
2022-10-03T08:08:09.012Z,8.41
2022-10-03T08:09:33.251Z,8.55
2022-10-03T08:10:56.975Z,8.72
2022-10-03T08:12:27.347Z,8.72
2022-10-03T08:13:57.072Z,8.80
2022-10-03T08:16:47.506Z,9.04
2022-10-03T08:17:59.215Z,9.06
2022-10-03T08:19:10.666Z,8.98
2022-10-03T08:20:30.374Z,8.98
2022-10-03T08:21:54.685Z,9.01
2022-10-03T08:23:12.651Z,9.04
2022-10-03T08:24:24.474Z,9.16
2022-10-03T08:25:30.230Z,9.22
2022-10-03T08:26:39.001Z,9.32
2022-10-03T08:27:51.013Z,9.32
2022-10-03T08:29:05.638Z,9.37
2022-10-03T08:30:39.186Z,9.35
2022-10-03T08:31:48.104Z,9.43
2022-10-03T08:33:00.173Z,9.43
2022-10-03T08:34:21.303Z,9.29
2022-10-03T08:35:46.717Z,9.59
2022-10-03T08:37:09.420Z,9.73
2022-10-03T08:38:28.248Z,9.78
2022-10-03T08:39:34.190Z,9.85
2022-10-03T08:41:02.265Z,9.94
2022-10-03T08:42:27.578Z,9.94
2022-10-03T08:43:54.166Z,9.94
2022-10-03T08:45:33.980Z,9.94
2022-10-03T08:46:46.104Z,10.00
2022-10-03T08:49:25.629Z,10.11
2022-10-03T08:50:34.593Z,9.96
2022-10-03T08:51:57.271Z,9.97
2022-10-03T08:53:03.163Z,10.02
2022-10-03T08:54:25.370Z,9.92
2022-10-03T08:55:40.379Z,9.94
2022-10-03T08:56:58.698Z,9.96
2022-10-03T08:58:19.073Z,9.92
2022-10-03T08:59:41.364Z,9.91
2022-10-03T09:01:03.643Z,9.96
2022-10-03T09:02:28.856Z,9.96
2022-10-03T09:03:57.603Z,9.93
2022-10-03T09:05:20.401Z,9.93
2022-10-03T09:07:15.931Z,9.84
2022-10-03T09:08:02.806Z,9.84
2022-10-03T09:09:08.576Z,10.02
2022-10-03T09:10:20.680Z,10.00
2022-10-03T09:11:41.205Z,10.05
2022-10-03T09:13:06.651Z,10.12
2022-10-03T09:14:27.734Z,10.25
2022-10-03T09:16:02.549Z,10.36
2022-10-03T09:17:37.637Z,10.53
2022-10-03T09:19:03.506Z,10.66
2022-10-03T09:20:18.662Z,10.81
2022-10-03T09:21:41.317Z,10.93
2022-10-03T09:23:08.711Z,11.04
2022-10-03T09:24:32.092Z,10.99
2022-10-03T09:25:47.067Z,10.90
2022-10-03T09:27:26.081Z,10.96
2022-10-03T09:28:48.680Z,10.77
2022-10-03T09:30:17.757Z,10.93
2022-10-03T09:31:42.281Z,10.94
2022-10-03T09:33:16.870Z,11.15
2022-10-03T09:34:39.597Z,11.15
2022-10-03T09:36:10.979Z,11.19
2022-10-03T09:37:32.054Z,11.04
2022-10-03T09:38:57.284Z,11.07
2022-10-03T09:40:19.713Z,11.10
2022-10-03T09:41:43.694Z,11.35
2022-10-03T09:43:04.359Z,11.40
2022-10-03T09:44:33.021Z,11.47
2022-10-03T09:45:54.081Z,11.65
2022-10-03T09:47:29.114Z,11.72
2022-10-03T09:48:44.182Z,11.66
2022-10-03T09:50:23.957Z,11.59
2022-10-03T09:51:35.709Z,11.68
2022-10-03T09:52:41.682Z,11.80
2022-10-03T09:54:05.188Z,12.00
2022-10-03T09:55:41.234Z,12.08
2022-10-03T09:57:03.734Z,12.11
2022-10-03T09:58:29.264Z,12.00
2022-10-03T09:59:52.017Z,12.03
2022-10-03T10:01:19.377Z,12.23
2022-10-03T10:02:37.703Z,12.21
2022-10-03T10:04:06.474Z,12.06
2022-10-03T10:05:29.892Z,12.11
2022-10-03T10:06:44.131Z,12.18
2022-10-03T10:08:19.134Z,12.14
2022-10-03T10:09:39.673Z,12.03
2022-10-03T10:11:02.362Z,12.06
2022-10-03T10:12:27.792Z,12.06
2022-10-03T10:14:09.689Z,12.08
2022-10-03T10:15:04.739Z,12.15
2022-10-03T10:16:27.341Z,11.56
2022-10-03T10:17:42.174Z,11.98
2022-10-03T10:19:12.087Z,12.01
2022-10-03T10:20:41.861Z,12.02
2022-10-03T10:21:53.374Z,12.02
2022-10-03T10:23:31.469Z,11.91
2022-10-03T10:25:12.568Z,11.89
2022-10-03T10:26:33.091Z,11.92
2022-10-03T10:27:56.377Z,11.92
2022-10-03T10:29:11.388Z,11.88
2022-10-03T10:32:21.168Z,12.02
2022-10-03T10:33:43.685Z,11.75
2022-10-03T10:34:58.498Z,11.92
2022-10-03T10:36:25.438Z,11.88
2022-10-03T10:37:47.993Z,11.94
2022-10-03T10:39:13.838Z,11.94
2022-10-03T10:40:53.480Z,11.72
2022-10-03T10:42:31.640Z,11.91
2022-10-03T10:43:53.897Z,11.89
2022-10-03T10:45:11.384Z,11.77
2022-10-03T10:46:28.998Z,11.83
2022-10-03T10:47:51.533Z,11.81
2022-10-03T10:49:18.616Z,11.76
2022-10-03T10:50:26.971Z,11.84
2022-10-03T10:51:49.464Z,11.82
2022-10-03T10:53:10.672Z,11.82
2022-10-03T10:54:25.670Z,11.82
2022-10-03T10:56:05.511Z,11.86
2022-10-03T10:57:37.490Z,11.90
2022-10-03T10:59:09.379Z,11.97
2022-10-03T11:00:30.531Z,12.02
2022-10-03T11:02:10.952Z,12.12
2022-10-03T11:03:45.616Z,12.08
2022-10-03T11:05:12.828Z,12.05
2022-10-03T11:06:24.740Z,12.17
2022-10-03T11:08:02.985Z,12.20
2022-10-03T11:09:25.138Z,12.12
2022-10-03T11:10:34.034Z,12.06
2022-10-03T11:12:14.731Z,12.00
2022-10-03T11:13:39.936Z,12.01
2022-10-03T11:15:19.263Z,12.02
2022-10-03T11:16:34.294Z,12.32
2022-10-03T11:18:05.530Z,12.43
2022-10-03T11:19:31.481Z,12.38
2022-10-03T11:21:12.606Z,12.47
2022-10-03T11:22:50.566Z,12.34
2022-10-03T11:24:11.757Z,12.24
2022-10-03T11:25:33.994Z,12.16
2022-10-03T11:27:13.698Z,12.24
2022-10-03T11:28:48.561Z,12.25
2022-10-03T11:30:11.105Z,12.35
2022-10-03T11:31:29.080Z,12.31
2022-10-03T11:32:44.296Z,12.32
2022-10-03T11:33:52.971Z,12.29
2022-10-03T11:36:46.603Z,12.52
2022-10-03T11:38:09.155Z,12.22
2022-10-03T11:39:27.320Z,12.49
2022-10-03T11:40:47.911Z,12.55
2022-10-03T11:42:02.971Z,12.40
2022-10-03T11:43:43.859Z,12.46
2022-10-03T11:44:52.114Z,12.49
2022-10-03T11:45:57.405Z,12.46
2022-10-03T11:47:24.454Z,12.50
2022-10-03T11:48:42.294Z,12.50
2022-10-03T11:50:05.654Z,12.49
2022-10-03T11:51:14.328Z,12.47
2022-10-03T11:52:29.202Z,12.36
2022-10-03T11:53:40.655Z,12.48
2022-10-03T11:54:46.573Z,12.46
2022-10-03T11:55:55.181Z,12.50
2022-10-03T11:57:07.065Z,12.42
2022-10-03T11:58:25.109Z,12.38
2022-10-03T11:59:55.603Z,12.54
2022-10-03T12:01:01.602Z,12.49
2022-10-03T12:02:16.832Z,12.37
2022-10-03T12:03:31.986Z,12.46
2022-10-03T12:04:52.621Z,12.51
2022-10-03T12:06:01.118Z,12.56
2022-10-03T12:07:13.628Z,12.57
2022-10-03T12:08:31.424Z,12.59
2022-10-03T12:10:09.535Z,12.55
2022-10-03T12:11:43.287Z,12.61
2022-10-03T12:12:49.282Z,12.73
2022-10-03T12:14:18.257Z,12.54
2022-10-03T12:15:41.787Z,12.60
2022-10-03T12:16:57.120Z,12.62
2022-10-03T12:19:14.120Z,12.74
2022-10-03T12:20:23.007Z,12.54
2022-10-03T12:21:51.966Z,12.54
2022-10-03T12:23:17.256Z,12.57
2022-10-03T12:24:28.640Z,12.67
2022-10-03T12:25:34.282Z,12.72
2022-10-03T12:27:04.252Z,12.74
2022-10-03T12:28:37.012Z,12.64
2022-10-03T12:29:42.683Z,12.67
2022-10-03T12:30:48.610Z,12.63
2022-10-03T12:32:10.757Z,12.45
2022-10-03T12:33:22.544Z,12.48
2022-10-03T12:34:40.551Z,12.56
2022-10-03T12:37:20.985Z,12.75
2022-10-03T12:38:46.517Z,12.57
2022-10-03T12:39:51.169Z,12.54
2022-10-03T12:41:20.207Z,12.47
2022-10-03T12:42:47.603Z,12.44
2022-10-03T12:43:53.347Z,12.44
2022-10-03T12:45:05.193Z,12.41
2022-10-03T12:46:17.385Z,12.37
2022-10-03T12:47:55.456Z,12.35
2022-10-03T12:49:00.825Z,12.38
2022-10-03T12:50:36.475Z,12.51
2022-10-03T12:51:51.502Z,12.50
2022-10-03T12:53:18.073Z,12.34
2022-10-03T12:54:44.954Z,12.49
2022-10-03T12:55:56.545Z,12.46
2022-10-03T12:57:21.872Z,12.30
2022-10-03T12:58:49.009Z,12.36
2022-10-03T12:59:57.693Z,12.01
2022-10-03T13:01:03.646Z,11.90
2022-10-03T13:02:40.105Z,11.78
2022-10-03T13:04:01.300Z,11.30
2022-10-03T13:05:25.797Z,11.14
2022-10-03T13:08:00.088Z,11.06
2022-10-03T13:09:05.959Z,11.06
2022-10-03T13:10:31.586Z,11.13
2022-10-03T13:11:40.826Z,11.10
2022-10-03T13:12:52.610Z,11.06
2022-10-03T13:13:56.265Z,10.99
2022-10-03T13:15:20.825Z,11.13
2022-10-03T13:16:32.389Z,11.07
2022-10-03T13:17:47.203Z,10.92
2022-10-03T13:19:06.618Z,10.92
2022-10-03T13:20:19.347Z,11.07
2022-10-03T13:21:45.396Z,11.14
2022-10-03T13:22:55.514Z,11.14
2022-10-03T13:24:01.241Z,11.04
2022-10-03T13:25:23.747Z,11.02
2022-10-03T13:26:38.781Z,11.02
2022-10-03T13:27:44.479Z,11.00
2022-10-03T13:29:13.689Z,11.09
2022-10-03T13:30:31.524Z,11.14
2022-10-03T13:31:36.448Z,11.19
2022-10-03T13:32:42.442Z,11.18
2022-10-03T13:33:48.226Z,11.22
2022-10-03T13:35:27.502Z,11.16
2022-10-03T13:36:51.157Z,11.29
2022-10-03T13:38:21.238Z,11.33
2022-10-03T13:39:29.994Z,11.42
2022-10-03T13:40:36.009Z,11.35
2022-10-03T13:41:42.136Z,11.29
2022-10-03T13:42:46.886Z,11.35
2022-10-03T13:43:58.857Z,11.28
2022-10-03T13:45:04.134Z,11.22
2022-10-03T13:46:13.160Z,11.19
2022-10-03T13:47:33.536Z,11.16
2022-10-03T13:48:36.275Z,11.17
2022-10-03T13:49:50.620Z,10.96
2022-10-03T13:50:59.186Z,10.67
2022-10-03T13:52:07.733Z,10.45
2022-10-03T13:53:39.622Z,10.45
2022-10-03T13:55:02.196Z,10.39
2022-10-03T13:56:10.860Z,10.45
2022-10-03T13:57:22.014Z,10.51
2022-10-03T14:00:11.543Z,10.65
2022-10-03T14:01:23.524Z,10.61
2022-10-03T14:02:50.643Z,10.67
2022-10-03T14:03:56.646Z,10.69
2022-10-03T14:05:11.469Z,10.69
2022-10-03T14:06:26.612Z,10.69
2022-10-03T14:07:38.673Z,10.73
2022-10-03T14:09:02.705Z,10.80
2022-10-03T14:10:08.515Z,10.75
2022-10-03T14:11:38.877Z,10.76
2022-10-03T14:13:03.290Z,10.76
2022-10-03T14:15:48.133Z,10.86
2022-10-03T14:17:01.066Z,10.85
2022-10-03T14:18:22.071Z,10.85
2022-10-03T14:19:53.610Z,10.85
2022-10-03T14:21:14.361Z,10.82
2022-10-03T14:22:28.940Z,10.79
2022-10-03T14:23:46.103Z,10.79
2022-10-03T14:25:01.116Z,10.87
2022-10-03T14:26:23.774Z,10.91
2022-10-03T14:27:41.955Z,10.97
2022-10-03T14:28:56.981Z,10.91
2022-10-03T14:30:14.661Z,11.01
2022-10-03T14:31:35.262Z,11.05
2022-10-03T14:33:05.250Z,10.96
2022-10-03T14:34:20.348Z,11.04
2022-10-03T14:35:29.183Z,11.06
2022-10-03T14:36:50.410Z,10.97
2022-10-03T14:38:05.031Z,11.02
2022-10-03T14:39:16.223Z,11.04
2022-10-03T14:40:31.364Z,11.08
2022-10-03T14:42:05.750Z,11.09
2022-10-03T14:43:17.490Z,10.97
2022-10-03T14:44:25.602Z,11.04
2022-10-03T14:46:50.152Z,11.24
2022-10-03T14:47:55.881Z,11.10
2022-10-03T14:49:03.947Z,11.13
2022-10-03T14:50:09.340Z,11.16
2022-10-03T14:51:44.110Z,11.15
2022-10-03T14:52:50.063Z,11.16
2022-10-03T14:53:58.843Z,11.19
2022-10-03T14:55:16.964Z,11.24
2022-10-03T14:56:20.215Z,11.33
2022-10-03T14:57:58.762Z,11.33
2022-10-03T14:58:48.508Z,11.33
2022-10-03T14:59:54.232Z,11.35
2022-10-03T15:01:06.242Z,11.41
2022-10-03T15:02:20.484Z,11.43
2022-10-03T15:03:25.943Z,11.43
2022-10-03T15:04:31.820Z,11.43
2022-10-03T15:05:35.513Z,11.42
2022-10-03T15:06:50.304Z,11.40
2022-10-03T15:07:52.981Z,11.41
2022-10-03T15:08:57.550Z,11.30
2022-10-03T15:10:02.285Z,11.34
2022-10-03T15:11:06.153Z,11.34
2022-10-03T15:12:21.088Z,11.32
2022-10-03T15:13:26.213Z,11.35
2022-10-03T15:14:31.980Z,11.37
2022-10-03T15:15:40.651Z,11.32
2022-10-03T15:18:01.559Z,11.44
2022-10-03T15:19:16.047Z,11.35
2022-10-03T15:20:21.819Z,11.27
2022-10-03T15:21:26.787Z,11.25
2022-10-03T15:22:32.521Z,11.27
2022-10-03T15:23:41.176Z,11.26
2022-10-03T15:24:44.426Z,11.28
2022-10-03T15:25:49.460Z,11.33
2022-10-03T15:27:04.600Z,11.34
2022-10-03T15:28:16.186Z,11.23
2022-10-03T15:29:20.527Z,11.27
2022-10-03T15:31:45.783Z,11.36
2022-10-03T15:32:50.182Z,11.23
2022-10-03T15:33:54.357Z,11.20
2022-10-03T15:35:00.102Z,11.27
2022-10-03T15:36:20.889Z,11.26
2022-10-03T15:37:26.154Z,11.24
2022-10-03T15:38:35.054Z,11.29
2022-10-03T15:39:39.221Z,11.32
2022-10-03T15:42:04.353Z,11.44
2022-10-03T15:43:08.104Z,11.36
2022-10-03T15:44:16.620Z,11.34
2022-10-03T15:45:25.447Z,11.36
2022-10-03T15:46:33.369Z,11.33
2022-10-03T15:47:39.069Z,11.39
2022-10-03T15:48:47.198Z,11.42
2022-10-03T15:50:05.194Z,11.41
2022-10-03T15:51:11.006Z,11.38
2022-10-03T15:52:19.760Z,11.43
2022-10-03T15:54:36.692Z,11.55
2022-10-03T15:55:45.406Z,11.45
2022-10-03T15:56:51.278Z,11.43
2022-10-03T15:59:24.634Z,11.53
2022-10-03T16:00:32.153Z,11.41
2022-10-03T16:01:39.275Z,11.41
2022-10-03T16:02:46.055Z,11.45
2022-10-03T16:03:57.794Z,11.45
2022-10-03T16:05:03.342Z,11.41
2022-10-03T16:06:12.529Z,11.41
2022-10-03T16:07:21.281Z,11.43
2022-10-03T16:08:27.667Z,11.43
2022-10-03T16:09:34.647Z,11.45
2022-10-03T16:10:41.622Z,11.44
2022-10-03T16:12:00.206Z,11.41
2022-10-03T16:13:18.522Z,11.47
2022-10-03T16:14:42.339Z,11.44
2022-10-03T16:15:51.106Z,11.47
2022-10-03T16:17:02.639Z,11.46
2022-10-03T16:18:20.668Z,11.49
2022-10-03T16:19:32.610Z,11.45
2022-10-03T16:20:44.477Z,11.44
2022-10-03T16:21:56.056Z,11.47
2022-10-03T16:23:20.335Z,11.43
2022-10-03T16:24:26.019Z,11.41
2022-10-03T16:25:40.535Z,11.46
2022-10-03T16:26:58.342Z,11.43
2022-10-03T16:28:10.047Z,11.48
2022-10-03T16:29:18.736Z,11.49
2022-10-03T16:30:24.597Z,11.51
2022-10-03T16:31:30.193Z,11.57
2022-10-03T16:32:36.047Z,11.54
2022-10-03T16:33:41.777Z,11.52
2022-10-03T16:34:45.822Z,11.52
2022-10-03T16:36:00.589Z,11.54
2022-10-03T16:37:04.900Z,11.55
2022-10-03T16:39:35.553Z,11.64
2022-10-03T16:40:38.413Z,11.53
2022-10-03T16:41:42.420Z,11.49
2022-10-03T16:42:46.294Z,11.52
2022-10-03T16:44:03.035Z,11.52
2022-10-03T16:45:09.232Z,11.49
2022-10-03T16:46:15.509Z,11.46
2022-10-03T16:47:20.294Z,11.42
2022-10-03T16:48:27.991Z,11.43
2022-10-03T16:49:57.619Z,11.30
2022-10-03T16:51:02.430Z,11.24
2022-10-03T16:52:11.182Z,11.11
2022-10-03T16:53:15.213Z,10.79
2022-10-03T16:54:19.467Z,10.74
2022-10-03T16:55:31.538Z,10.85
2022-10-03T16:56:37.422Z,10.88
2022-10-03T16:57:43.100Z,10.62
2022-10-03T16:58:51.831Z,10.60
2022-10-03T16:59:55.510Z,10.65
2022-10-03T17:01:25.996Z,10.45
2022-10-03T17:02:14.646Z,10.55
2022-10-03T17:03:23.417Z,10.62
2022-10-03T17:04:38.486Z,10.55
2022-10-03T17:05:44.167Z,10.49
2022-10-03T17:06:48.893Z,10.44
2022-10-03T17:07:57.863Z,10.36
2022-10-03T17:09:03.747Z,10.36
2022-10-03T17:10:25.149Z,10.39
2022-10-03T17:11:28.914Z,10.46
2022-10-03T17:12:40.231Z,10.11
2022-10-03T17:13:45.726Z,10.18
2022-10-03T17:14:50.136Z,10.11
2022-10-03T17:15:55.888Z,10.19
2022-10-03T17:17:01.804Z,10.13
2022-10-03T17:18:25.326Z,10.16
2022-10-03T17:19:51.660Z,10.15
2022-10-03T17:20:57.642Z,10.08
2022-10-03T17:22:18.898Z,10.08
2022-10-03T17:23:30.432Z,10.10
2022-10-03T17:24:40.316Z,9.96
2022-10-03T17:26:02.841Z,10.01
2022-10-03T17:27:12.862Z,10.01
2022-10-03T17:28:20.724Z,10.12
2022-10-03T17:29:29.718Z,10.02
2022-10-03T17:30:47.987Z,10.01
2022-10-03T17:32:15.586Z,10.05
2022-10-03T17:33:36.531Z,9.75
2022-10-03T17:36:04.888Z,10.18
2022-10-03T17:37:26.039Z,10.07
2022-10-03T17:38:50.046Z,10.14
2022-10-03T17:40:16.367Z,10.14
2022-10-03T17:41:25.027Z,10.12
2022-10-03T17:42:51.649Z,10.13
2022-10-03T17:44:00.618Z,10.13
2022-10-03T17:45:18.601Z,10.11
2022-10-03T17:46:41.092Z,10.14
2022-10-03T17:47:58.841Z,10.14
2022-10-03T17:49:22.177Z,10.23